KAPA/APA METAR and TAF weather

Enter ICAO airport designator
Station Type Date Time Source
KAPA METAR 2018/01/23 00:53 UTC NOAA

KAPA 230053Z 32009KT 10SM FEW100 SCT200 02/M18 A3004 RMK AO2 SLP209 T00171183 PNO


Station Type Date Time Source
KAPA Decoded METAR 2018/01/23 00:53 UTC NOAA

DENVER CENTENNIAL AIRPORT, CO, United States (KAPA) 39-34N 104-51W 1775M
Jan 22, 2018 - 07:53 PM EST / 2018.01.23 0053 UTC
Wind: from the NW (320 degrees) at 10 MPH (9 KT):0
Visibility: 10 mile(s):0
Sky conditions: partly cloudy
Temperature: 35.1 F (1.7 C)
Dew Point: -0.9 F (-18.3 C)
Relative Humidity: 21%
Pressure (altimeter): 30.04 in. Hg (1017 hPa)
ob: KAPA 230053Z 32009KT 10SM FEW100 SCT200 02/M18 A3004 RMK AO2 SLP209 T00171183 PNO
cycle: 1

Station Type Date Time Source
KAPA TAF 2018/01/22 19:42 UTC NOAA

TAF
AMD KAPA 221841Z 2219/2318 28012G20KT P6SM FEW080 FEW200
FM222100 34010KT P6SM FEW080 SCT200
FM230100 16006KT P6SM SCT080 BKN200
FM230300 18008KT P6SM SCT080 BKN120
FM230600 18008KT P6SM BKN080
FM231300 20007KT P6SM FEW080 SCT200


Example: see airport list